Terminal Aerodrome Forecast
Issued by NWS Tampa Bay Area, FL

Home | Current Version | Previous Version | Text Only | Print | Product List | Glossary On
Versions: 1 2 3 4 5 6 7 8 9 10 11 12 13 14 15 16 17 18 19 20 21 22 23 24 25 26 27 28 29
000
FTUS42 KTBW 181400 AAA
TAFTPA
TAF AMD
KTPA 181437Z 1815/1912 09011KT P6SM VCSH BKN015 OVC060
     FM181700 14012KT 6SM SHRA SCT020 OVC050
      TEMPO 1817/1819 VRB15G25KT 4SM TSRA SCT015CB BKN020
     FM182000 17013KT P6SM SHRA SCT040 OVC090
     FM190500 20013KT 6SM SHRA BKN025=

USA.gov is the U.S. government's official web portal to all federal, state and local government web resources and services.